Agate Beach, Oregon
Current Conditions -  °F | °C
As of 2:35 PM on Friday 19 Dec 2014 (Local Time) from KONP Reporting Station
Scattered Clouds Scattered Clouds  
Wind Chill: 52°   Ceiling: Unl
Heat Index: 52°   Visibility: 10mi
Dew Point: 46°   Wind: 6mph
Humidity: 82%   Direction: 140°SE
Pressure: 29.99"   Gusts: NA
Location:  44.6805°N, 124.021°W
Report Text: KONP 192235Z AUTO 14005KT 10SM SCT030 SCT047 11/08 A2999 RMK AO2
Loading
Personal Weather Stations






























Interactive Weather Map New forecast layout! Learn more

10-Day Weather Forecast

Advertisements
Track Severe Weather on mobile